createdAt,value
2023-02-08T00:01:35.057Z,102341.25
2023-02-08T00:04:03.370Z,102348.13
2023-02-08T00:06:31.988Z,102340.50
2023-02-08T00:09:03.011Z,102341.25
2023-02-08T00:11:31.370Z,102355.13
2023-02-08T00:14:02.535Z,102347.19
2023-02-08T00:16:30.997Z,102352.38
2023-02-08T00:18:59.248Z,102358.41
2023-02-08T00:21:27.418Z,102353.84
2023-02-08T00:23:55.580Z,102357.44
2023-02-08T00:26:25.154Z,102363.47
2023-02-08T00:28:53.396Z,102352.25
2023-02-08T00:31:21.789Z,102356.50
2023-02-08T00:33:50.221Z,102346.72
2023-02-08T00:36:18.417Z,102356.34
2023-02-08T00:38:46.594Z,102360.84
2023-02-08T00:41:14.868Z,102357.34
2023-02-08T00:43:44.476Z,102349.22
2023-02-08T00:46:13.051Z,102352.63
2023-02-08T00:48:41.288Z,102357.94
2023-02-08T00:51:13.150Z,102351.78
2023-02-08T00:53:45.649Z,102355.03
2023-02-08T00:56:15.459Z,102340.72
2023-02-08T00:58:45.606Z,102353.97
2023-02-08T01:01:14.387Z,102352.91
2023-02-08T01:03:43.772Z,102349.53
2023-02-08T01:06:15.929Z,102348.34
2023-02-08T01:08:47.356Z,102335.06
2023-02-08T01:11:18.729Z,102332.41
2023-02-08T01:13:49.000Z,102320.81
2023-02-08T01:16:19.119Z,102320.81
2023-02-08T01:18:56.507Z,102326.97
2023-02-08T01:21:26.906Z,102321.66
2023-02-08T01:23:55.741Z,102322.50
2023-02-08T01:26:25.961Z,102324.31
2023-02-08T01:28:56.797Z,102321.56
2023-02-08T01:31:28.114Z,102331.19
2023-02-08T01:33:57.143Z,102332.28
2023-02-08T01:36:25.884Z,102331.69
2023-02-08T01:38:54.472Z,102324.69
2023-02-08T01:41:24.982Z,102318.44
2023-02-08T01:44:09.336Z,102318.53
2023-02-08T01:46:39.514Z,102316.72
2023-02-08T01:49:13.414Z,102323.13
2023-02-08T01:51:48.212Z,102325.03
2023-02-08T01:54:20.675Z,102326.00
2023-02-08T01:56:50.586Z,102323.72
2023-02-08T01:59:23.831Z,102318.63
2023-02-08T02:01:55.039Z,102324.91
2023-02-08T02:04:23.985Z,102330.94
2023-02-08T02:07:01.620Z,102330.19
2023-02-08T02:09:45.469Z,102323.19
2023-02-08T02:12:14.265Z,102335.50
2023-02-08T02:14:44.947Z,102333.69
2023-02-08T02:17:14.250Z,102339.63
2023-02-08T02:19:53.275Z,102337.19
2023-02-08T02:22:54.981Z,102342.28
2023-02-08T02:26:02.656Z,102342.28
2023-02-08T02:28:51.168Z,102347.56
2023-02-08T02:32:06.722Z,102341.53
2023-02-08T02:34:42.622Z,102343.56
2023-02-08T02:37:21.869Z,102335.50
2023-02-08T02:40:02.256Z,102340.81
2023-02-08T02:42:56.273Z,102342.59
2023-02-08T02:45:31.539Z,102343.44
2023-02-08T02:48:07.210Z,102358.28
2023-02-08T02:50:44.985Z,102357.19
2023-02-08T02:53:19.735Z,102351.03
2023-02-08T02:55:51.919Z,102356.97
2023-02-08T02:58:23.391Z,102359.38
2023-02-08T03:00:56.059Z,102371.56
2023-02-08T03:03:31.814Z,102375.06
2023-02-08T03:06:06.508Z,102375.94
2023-02-08T03:09:06.958Z,102372.44
2023-02-08T03:11:38.025Z,102383.03
2023-02-08T03:14:36.165Z,102380.50
2023-02-08T03:17:18.013Z,102373.38
2023-02-08T03:19:58.622Z,102369.03
2023-02-08T03:22:41.079Z,102374.22
2023-02-08T03:25:15.113Z,102379.53
2023-02-08T03:27:53.490Z,102369.88
2023-02-08T03:30:29.241Z,102376.78
2023-02-08T03:33:03.165Z,102380.28
2023-02-08T03:35:37.038Z,102379.16
2023-02-08T03:38:11.116Z,102385.19
2023-02-08T03:40:41.856Z,102390.50
2023-02-08T03:43:15.868Z,102380.00
2023-02-08T03:45:53.821Z,102388.13
2023-02-08T03:48:24.664Z,102380.97
2023-02-08T03:50:57.114Z,102382.66
2023-02-08T03:53:28.125Z,102386.16
2023-02-08T03:56:06.051Z,102377.13
2023-02-08T03:58:43.146Z,102371.84
2023-02-08T04:01:18.113Z,102383.16
2023-02-08T04:03:53.621Z,102387.53
2023-02-08T04:06:22.630Z,102382.56
2023-02-08T04:08:52.988Z,102388.47
2023-02-08T04:11:21.466Z,102401.50
2023-02-08T04:13:50.469Z,102396.31
2023-02-08T04:16:18.680Z,102391.63
2023-02-08T04:18:50.323Z,102381.25
2023-02-08T04:21:18.716Z,102389.69
2023-02-08T04:23:47.060Z,102399.13
2023-02-08T04:26:17.685Z,102402.50
2023-02-08T04:28:47.702Z,102411.41
2023-02-08T04:31:16.140Z,102407.06
2023-02-08T04:33:44.563Z,102409.63
2023-02-08T04:36:13.608Z,102412.25
2023-02-08T04:38:41.948Z,102408.75
2023-02-08T04:41:10.656Z,102406.00
2023-02-08T04:43:40.305Z,102417.47
2023-02-08T04:46:08.754Z,102420.84
2023-02-08T04:48:36.976Z,102426.03
2023-02-08T04:51:05.384Z,102417.00
2023-02-08T04:53:35.041Z,102416.00
2023-02-08T04:56:03.314Z,102417.72
2023-02-08T04:58:31.708Z,102413.34
2023-02-08T05:01:01.475Z,102415.16
2023-02-08T05:03:29.804Z,102415.06
2023-02-08T05:05:58.994Z,102414.22
2023-02-08T05:08:27.737Z,102410.72
2023-02-08T05:10:55.944Z,102418.56
2023-02-08T05:13:33.017Z,102416.63
2023-02-08T05:16:02.898Z,102407.94
2023-02-08T05:18:31.350Z,102415.69
2023-02-08T05:21:00.742Z,102420.97
2023-02-08T05:23:29.671Z,102422.06
2023-02-08T05:25:57.898Z,102421.47
2023-02-08T05:28:30.355Z,102408.19
2023-02-08T05:30:58.708Z,102408.44
2023-02-08T05:33:28.566Z,102414.34
2023-02-08T05:35:56.739Z,102415.31
2023-02-08T05:38:24.989Z,102406.97
2023-02-08T05:40:53.236Z,102414.09
2023-02-08T05:43:21.474Z,102411.31
2023-02-08T05:45:51.386Z,102406.25
2023-02-08T05:48:20.073Z,102404.22
2023-02-08T05:50:50.243Z,102400.59
2023-02-08T05:53:19.692Z,102393.59
2023-02-08T05:55:49.261Z,102395.28
2023-02-08T05:58:19.237Z,102399.75
2023-02-08T06:00:47.492Z,102399.97
2023-02-08T06:03:15.986Z,102392.75
2023-02-08T06:05:44.314Z,102392.97
2023-02-08T06:08:14.072Z,102393.59
2023-02-08T06:10:42.580Z,102389.25
2023-02-08T06:13:10.953Z,102390.09
2023-02-08T06:15:39.257Z,102382.97
2023-02-08T06:18:09.290Z,102371.53
2023-02-08T06:20:38.217Z,102365.25
2023-02-08T06:23:06.707Z,102370.56
2023-02-08T06:25:36.511Z,102380.09
2023-02-08T06:28:10.827Z,102381.91
2023-02-08T06:30:39.556Z,102374.69
2023-02-08T06:33:08.063Z,102371.91
2023-02-08T06:35:36.399Z,102383.38
2023-02-08T06:38:04.777Z,102386.03
2023-02-08T06:40:33.041Z,102382.53
2023-02-08T06:43:02.777Z,102381.69
2023-02-08T06:45:31.128Z,102380.09
2023-02-08T06:47:59.409Z,102376.94
2023-02-08T06:50:27.738Z,102386.13
2023-02-08T06:52:56.837Z,102379.00
2023-02-08T06:55:25.116Z,102374.66
2023-02-08T06:57:55.027Z,102386.13
2023-02-08T07:00:24.948Z,102386.97
2023-02-08T07:02:56.346Z,102390.59
2023-02-08T07:05:24.512Z,102403.75
2023-02-08T07:07:53.724Z,102404.56
2023-02-08T07:10:21.894Z,102404.56
2023-02-08T07:12:51.336Z,102398.66
2023-02-08T07:15:19.838Z,102397.44
2023-02-08T07:17:52.516Z,102392.28
2023-02-08T07:20:20.945Z,102392.41
2023-02-08T07:22:49.276Z,102393.47
2023-02-08T07:25:17.605Z,102390.69
2023-02-08T07:27:46.100Z,102392.50
2023-02-08T07:30:15.151Z,102390.69
2023-02-08T07:32:51.311Z,102382.63
2023-02-08T07:35:20.992Z,102375.63
2023-02-08T07:37:49.664Z,102378.16
2023-02-08T07:40:18.044Z,102383.47
2023-02-08T07:42:46.307Z,102381.91
2023-02-08T07:45:14.521Z,102381.91
2023-02-08T07:47:42.815Z,102379.34
2023-02-08T07:50:11.437Z,102381.03
2023-02-08T07:52:44.180Z,102380.19
2023-02-08T07:55:17.023Z,102390.94
2023-02-08T07:57:45.340Z,102391.66
2023-02-08T08:00:15.193Z,102405.66
2023-02-08T08:02:43.750Z,102413.63
2023-02-08T08:05:12.640Z,102413.63
2023-02-08T08:07:46.805Z,102408.44
2023-02-08T08:10:17.999Z,102407.47
2023-02-08T08:12:46.176Z,102410.72
2023-02-08T08:15:14.342Z,102413.13
2023-02-08T08:17:45.535Z,102423.53
2023-02-08T08:20:13.730Z,102435.72
2023-02-08T08:22:43.434Z,102435.50
2023-02-08T08:25:11.701Z,102424.72
2023-02-08T08:27:40.073Z,102428.13
2023-02-08T08:30:09.319Z,102426.19
2023-02-08T08:32:39.018Z,102417.16
2023-02-08T08:35:08.507Z,102417.03
2023-02-08T08:37:37.327Z,102433.31
2023-02-08T08:40:09.085Z,102431.63
2023-02-08T08:42:39.889Z,102431.50
2023-02-08T08:45:09.331Z,102427.28
2023-02-08T08:47:37.547Z,102435.88
2023-02-08T08:50:06.045Z,102437.66
2023-02-08T08:52:34.674Z,102441.06
2023-02-08T08:55:02.851Z,102438.50
2023-02-08T08:57:32.782Z,102447.31
2023-02-08T09:00:01.034Z,102445.41
2023-02-08T09:02:29.232Z,102443.59
2023-02-08T09:05:00.046Z,102447.94
2023-02-08T09:07:28.741Z,102437.31
2023-02-08T09:09:56.989Z,102445.41
2023-02-08T09:12:25.470Z,102439.88
2023-02-08T09:14:55.137Z,102436.13
2023-02-08T09:17:23.356Z,102435.03
2023-02-08T09:19:51.852Z,102444.44
2023-02-08T09:22:20.435Z,102443.38
2023-02-08T09:24:49.052Z,102441.56
2023-02-08T09:27:19.206Z,102453.88
2023-02-08T09:29:47.342Z,102454.00
2023-02-08T09:32:17.025Z,102454.84
2023-02-08T09:34:45.370Z,102462.81
2023-02-08T09:37:22.679Z,102459.06
2023-02-08T09:39:51.137Z,102460.16
2023-02-08T09:42:37.042Z,102467.03
2023-02-08T09:45:15.653Z,102465.59
2023-02-08T09:47:51.582Z,102468.84
2023-02-08T09:50:27.797Z,102471.97
2023-02-08T09:53:02.980Z,102467.50
2023-02-08T09:55:38.221Z,102461.25
2023-02-08T09:58:21.137Z,102460.38
2023-02-08T10:00:51.466Z,102458.69
2023-02-08T10:03:35.073Z,102456.03
2023-02-08T10:06:04.902Z,102454.13
2023-02-08T10:08:35.893Z,102462.59
2023-02-08T10:11:27.636Z,102467.41
2023-02-08T10:14:15.111Z,102461.41
2023-02-08T10:17:01.859Z,102466.22
2023-02-08T10:19:42.984Z,102453.91
2023-02-08T10:22:24.167Z,102453.19
2023-02-08T10:25:20.712Z,102448.88
2023-02-08T10:28:04.482Z,102454.75
2023-02-08T10:30:42.053Z,102450.91
2023-02-08T10:33:21.555Z,102448.34
2023-02-08T10:35:56.115Z,102448.84
2023-02-08T10:38:37.248Z,102444.25
2023-02-08T10:41:22.218Z,102437.00
2023-02-08T10:43:58.878Z,102433.84
2023-02-08T10:46:36.213Z,102447.84
2023-02-08T10:49:21.386Z,102438.66
2023-02-08T10:51:51.723Z,102438.28
2023-02-08T10:54:20.322Z,102437.91
2023-02-08T10:56:56.559Z,102436.31
2023-02-08T10:59:31.427Z,102434.13
2023-02-08T11:02:00.652Z,102419.63
2023-02-08T11:04:29.548Z,102419.47
2023-02-08T11:07:02.671Z,102421.16
2023-02-08T11:09:32.931Z,102419.34
2023-02-08T11:12:05.007Z,102422.34
2023-02-08T11:14:47.237Z,102410.16
2023-02-08T11:17:37.918Z,102415.22
2023-02-08T11:20:09.783Z,102413.16
2023-02-08T11:22:46.376Z,102412.03
2023-02-08T11:25:35.792Z,102407.56
2023-02-08T11:28:07.410Z,102409.25
2023-02-08T11:30:47.874Z,102404.78
2023-02-08T11:33:25.451Z,102406.59
2023-02-08T11:36:03.994Z,102411.91
2023-02-08T11:38:37.439Z,102405.50
2023-02-08T11:41:26.717Z,102394.25
2023-02-08T11:44:03.938Z,102391.88
2023-02-08T11:46:39.343Z,102375.91
2023-02-08T11:49:08.213Z,102386.69
2023-02-08T11:51:38.995Z,102385.84
2023-02-08T11:54:36.617Z,102378.81
2023-02-08T11:57:12.667Z,102367.22
2023-02-08T11:59:40.994Z,102366.25
2023-02-08T12:02:31.693Z,102361.78
2023-02-08T12:05:00.341Z,102362.75
2023-02-08T12:07:39.636Z,102356.56
2023-02-08T12:10:50.954Z,102357.53
2023-02-08T12:14:00.606Z,102355.97
2023-02-08T12:16:49.651Z,102353.31
2023-02-08T12:19:57.758Z,102342.81
2023-02-08T12:22:27.916Z,102339.41
2023-02-08T12:25:10.732Z,102343.06
2023-02-08T12:27:48.642Z,102349.34
2023-02-08T12:30:26.661Z,102354.66
2023-02-08T12:33:17.968Z,102346.69
2023-02-08T12:36:12.357Z,102337.28
2023-02-08T12:39:21.905Z,102332.81
2023-02-08T12:42:10.689Z,102333.53
2023-02-08T12:44:57.562Z,102320.09
2023-02-08T12:47:51.715Z,102324.84
2023-02-08T12:50:32.714Z,102327.63
2023-02-08T12:53:05.410Z,102330.66
2023-02-08T12:55:37.475Z,102326.44
2023-02-08T12:58:22.597Z,102330.34
2023-02-08T13:00:54.720Z,102321.66
2023-02-08T13:03:33.028Z,102323.47
2023-02-08T13:06:07.126Z,102314.63
2023-02-08T13:08:42.389Z,102308.59
2023-02-08T13:11:20.028Z,102314.03
2023-02-08T13:13:57.152Z,102315.72
2023-02-08T13:16:34.807Z,102325.53
2023-02-08T13:19:23.943Z,102310.53
2023-02-08T13:21:53.795Z,102314.16
2023-02-08T13:24:35.244Z,102299.31
2023-02-08T13:27:07.339Z,102304.50
2023-02-08T13:29:36.493Z,102305.47
2023-02-08T13:32:12.035Z,102292.56
2023-02-08T13:34:44.822Z,102286.28
2023-02-08T13:37:27.310Z,102276.50
2023-02-08T13:40:04.472Z,102269.81
2023-02-08T13:42:39.741Z,102258.34
2023-02-08T13:45:11.157Z,102263.16
2023-02-08T13:47:46.358Z,102253.09
2023-02-08T13:50:47.693Z,102253.09
2023-02-08T13:53:17.502Z,102251.25
2023-02-08T13:56:01.654Z,102241.75
2023-02-08T13:59:07.375Z,102244.66
2023-02-08T14:01:37.308Z,102240.31
2023-02-08T14:04:35.079Z,102235.84
2023-02-08T14:07:14.947Z,102233.19
2023-02-08T14:09:49.556Z,102237.91
2023-02-08T14:12:30.089Z,102233.00
2023-02-08T14:15:23.461Z,102232.41
2023-02-08T14:17:58.166Z,102232.66
2023-02-08T14:20:32.682Z,102227.03
2023-02-08T14:23:03.926Z,102233.56
2023-02-08T14:25:42.599Z,102242.25
2023-02-08T14:28:28.730Z,102244.19
2023-02-08T14:31:00.099Z,102241.91
2023-02-08T14:33:31.239Z,102235.31
2023-02-08T14:36:05.530Z,102214.06
2023-02-08T14:38:56.111Z,102215.31
2023-02-08T14:41:44.950Z,102213.88
2023-02-08T14:44:55.977Z,102205.56
2023-02-08T14:48:07.976Z,102216.78
2023-02-08T14:50:52.830Z,102211.28
2023-02-08T14:53:35.854Z,102210.56
2023-02-08T14:56:09.057Z,102217.06
2023-02-08T14:58:42.731Z,102212.84
2023-02-08T15:01:18.870Z,102207.66
2023-02-08T15:03:50.717Z,102209.50
2023-02-08T15:06:51.910Z,102209.25
2023-02-08T15:09:25.231Z,102215.53
2023-02-08T15:12:01.972Z,102214.25
2023-02-08T15:14:32.338Z,102210.97
2023-02-08T15:17:01.434Z,102213.03
2023-02-08T15:19:32.184Z,102206.28
2023-02-08T15:22:20.280Z,102203.88
2023-02-08T15:24:55.967Z,102197.13
2023-02-08T15:27:26.306Z,102201.47
2023-02-08T15:29:54.823Z,102199.06
2023-02-08T15:32:25.748Z,102195.66
2023-02-08T15:34:56.705Z,102192.19
2023-02-08T15:37:27.954Z,102182.91
2023-02-08T15:39:59.851Z,102188.22
2023-02-08T15:42:35.086Z,102186.03
2023-02-08T15:45:04.651Z,102182.94
2023-02-08T15:47:46.015Z,102184.75
2023-02-08T15:50:22.203Z,102170.03
2023-02-08T15:53:00.282Z,102168.22
2023-02-08T15:55:35.203Z,102156.75
2023-02-08T15:58:07.297Z,102155.19
2023-02-08T16:00:38.377Z,102149.16
2023-02-08T16:03:10.761Z,102145.66
2023-02-08T16:05:40.536Z,102152.78
2023-02-08T16:08:09.319Z,102152.78
2023-02-08T16:10:44.695Z,102145.66
2023-02-08T16:13:21.559Z,102139.63
2023-02-08T16:16:07.194Z,102144.25
2023-02-08T16:18:41.056Z,102137.50
2023-02-08T16:21:22.192Z,102142.31
2023-02-08T16:23:53.125Z,102142.56
2023-02-08T16:26:28.874Z,102141.00
2023-02-08T16:29:00.689Z,102146.75
2023-02-08T16:31:33.724Z,102144.97
2023-02-08T16:34:06.290Z,102142.66
2023-02-08T16:36:37.405Z,102143.88
2023-02-08T16:39:36.283Z,102141.47
2023-02-08T16:42:15.305Z,102149.19
2023-02-08T16:45:04.038Z,102148.91
2023-02-08T16:47:38.140Z,102146.75
2023-02-08T16:50:09.412Z,102152.28
2023-02-08T16:52:38.369Z,102142.75
2023-02-08T16:55:07.631Z,102139.38
2023-02-08T16:57:45.534Z,102136.00
2023-02-08T17:00:23.077Z,102137.09
2023-02-08T17:02:51.709Z,102141.56
2023-02-08T17:05:24.414Z,102139.13
2023-02-08T17:07:58.341Z,102133.13
2023-02-08T17:10:32.299Z,102119.25
2023-02-08T17:13:19.448Z,102126.13
2023-02-08T17:15:50.913Z,102125.16
2023-02-08T17:18:19.442Z,102114.44
2023-02-08T17:20:48.055Z,102113.38
2023-02-08T17:23:16.653Z,102110.84
2023-02-08T17:25:46.565Z,102107.47
2023-02-08T17:28:19.382Z,102113.63
2023-02-08T17:30:49.128Z,102107.47
2023-02-08T17:33:19.135Z,102104.19
2023-02-08T17:35:48.394Z,102099.13
2023-02-08T17:38:17.934Z,102096.88
2023-02-08T17:40:46.843Z,102091.78
2023-02-08T17:43:18.101Z,102096.59
2023-02-08T17:45:46.832Z,102080.34
2023-02-08T17:48:15.358Z,102079.94
2023-02-08T17:50:48.109Z,102069.22
2023-02-08T17:53:16.250Z,102066.22
2023-02-08T17:55:47.854Z,102062.22
2023-02-08T17:58:19.870Z,102061.13
2023-02-08T18:00:48.295Z,102056.50
2023-02-08T18:03:17.344Z,102053.47
2023-02-08T18:05:45.887Z,102041.91
2023-02-08T18:08:14.359Z,102045.09
2023-02-08T18:10:53.501Z,102046.00
2023-02-08T18:13:23.294Z,102042.25
2023-02-08T18:15:51.831Z,102029.09
2023-02-08T18:18:20.219Z,102039.03
2023-02-08T18:20:48.424Z,102036.97
2023-02-08T18:23:16.624Z,102032.22
2023-02-08T18:25:45.198Z,102035.31
2023-02-08T18:28:15.350Z,102018.19
2023-02-08T18:30:45.236Z,102016.72
2023-02-08T18:33:13.827Z,102017.16
2023-02-08T18:35:42.320Z,102019.06
2023-02-08T18:38:10.742Z,102011.38
2023-02-08T18:40:41.173Z,102022.38
2023-02-08T18:43:09.549Z,102019.00
2023-02-08T18:45:37.718Z,102013.06
2023-02-08T18:48:07.579Z,101996.50
2023-02-08T18:50:36.863Z,101989.88
2023-02-08T18:53:05.293Z,101991.03
2023-02-08T18:55:33.704Z,101988.72
2023-02-08T18:58:01.886Z,101983.78
2023-02-08T19:00:30.153Z,101977.75
2023-02-08T19:02:58.523Z,101984.09
2023-02-08T19:05:28.219Z,101980.69
2023-02-08T19:07:56.512Z,101965.91
2023-02-08T19:10:24.742Z,101957.28
2023-02-08T19:12:52.916Z,101956.66
2023-02-08T19:15:21.210Z,101939.56
2023-02-08T19:17:49.460Z,101943.28
2023-02-08T19:20:17.902Z,101949.72
2023-02-08T19:22:47.583Z,101934.94
2023-02-08T19:25:15.957Z,101943.16
2023-02-08T19:27:44.253Z,101937.03
2023-02-08T19:30:15.871Z,101928.41
2023-02-08T19:32:44.256Z,101929.47
2023-02-08T19:35:12.891Z,101931.47
2023-02-08T19:37:42.539Z,101914.16
2023-02-08T19:40:13.862Z,101905.53
2023-02-08T19:42:43.872Z,101905.00
2023-02-08T19:45:12.300Z,101886.72
2023-02-08T19:47:50.949Z,101893.16
2023-02-08T19:50:20.836Z,101883.69
2023-02-08T19:52:49.219Z,101872.50
2023-02-08T19:55:19.166Z,101863.84
2023-02-08T19:57:47.415Z,101860.47
2023-02-08T20:00:23.323Z,101854.56
2023-02-08T20:02:51.883Z,101853.84
2023-02-08T20:05:20.061Z,101855.00
2023-02-08T20:07:48.320Z,101860.06
2023-02-08T20:10:16.864Z,101848.88
2023-02-08T20:12:46.542Z,101858.59
2023-02-08T20:15:14.742Z,101852.47
2023-02-08T20:17:44.191Z,101844.66
2023-02-08T20:20:13.107Z,101842.03
2023-02-08T20:22:41.329Z,101832.53
2023-02-08T20:25:09.706Z,101833.63
2023-02-08T20:27:37.986Z,101824.97
2023-02-08T20:30:08.841Z,101826.13
2023-02-08T20:32:37.042Z,101823.59
2023-02-08T20:35:05.660Z,101809.88
2023-02-08T20:37:34.040Z,101816.13
2023-02-08T20:40:02.234Z,101812.00
2023-02-08T20:42:30.431Z,101808.31
2023-02-08T20:44:58.717Z,101802.31
2023-02-08T20:47:29.982Z,101801.47
2023-02-08T20:50:04.986Z,101792.81
2023-02-08T20:52:39.905Z,101778.91
2023-02-08T20:55:09.085Z,101788.59
2023-02-08T20:57:37.449Z,101791.13
2023-02-08T21:00:06.426Z,101779.75
2023-02-08T21:02:39.045Z,101775.22
2023-02-08T21:05:08.034Z,101777.75
2023-02-08T21:07:40.394Z,101777.44
2023-02-08T21:10:09.371Z,101768.56
2023-02-08T21:12:38.381Z,101767.72
2023-02-08T21:15:07.603Z,101769.09
2023-02-08T21:17:56.435Z,101767.09
2023-02-08T21:20:24.732Z,101766.03
2023-02-08T21:22:53.024Z,101765.91
2023-02-08T21:25:21.318Z,101764.00
2023-02-08T21:27:49.955Z,101760.31
2023-02-08T21:30:18.391Z,101748.84
2023-02-08T21:32:52.089Z,101739.13
2023-02-08T21:35:20.345Z,101741.75
2023-02-08T21:37:48.881Z,101733.88
2023-02-08T21:40:17.492Z,101728.59
2023-02-08T21:42:46.091Z,101725.94
2023-02-08T21:45:14.433Z,101718.16
2023-02-08T21:47:42.713Z,101706.56
2023-02-08T21:50:30.826Z,101702.00
2023-02-08T21:53:18.449Z,101694.00
2023-02-08T21:55:47.838Z,101694.94
2023-02-08T21:58:16.135Z,101690.28
2023-02-08T22:00:44.617Z,101682.38
2023-02-08T22:03:12.982Z,101671.63
2023-02-08T22:05:42.681Z,101676.66
2023-02-08T22:08:10.983Z,101660.84
2023-02-08T22:10:42.810Z,101665.06
2023-02-08T22:13:15.721Z,101656.22
2023-02-08T22:15:44.469Z,101653.47
2023-02-08T22:18:12.699Z,101649.88
2023-02-08T22:20:43.697Z,101640.97
2023-02-08T22:23:14.196Z,101641.81
2023-02-08T22:25:42.500Z,101629.38
2023-02-08T22:28:12.713Z,101629.16
2023-02-08T22:30:41.788Z,101625.69
2023-02-08T22:33:10.032Z,101626.84
2023-02-08T22:35:58.964Z,101615.97
2023-02-08T22:38:27.398Z,101613.34
2023-02-08T22:40:55.592Z,101604.38
2023-02-08T22:43:24.074Z,101605.19
2023-02-08T22:45:59.124Z,101593.59
2023-02-08T22:48:27.399Z,101586.53
2023-02-08T22:50:56.071Z,101581.94
2023-02-08T22:53:29.832Z,101577.66
2023-02-08T22:55:58.296Z,101573.81
2023-02-08T22:58:29.282Z,101565.78
2023-02-08T23:00:57.589Z,101574.31
2023-02-08T23:03:27.326Z,101563.53
2023-02-08T23:05:55.568Z,101559.81
2023-02-08T23:08:24.227Z,101543.88
2023-02-08T23:11:00.065Z,101550.25
2023-02-08T23:13:30.492Z,101551.44
2023-02-08T23:16:00.611Z,101543.31
2023-02-08T23:18:28.892Z,101543.19
2023-02-08T23:20:57.392Z,101544.03
2023-02-08T23:23:25.703Z,101544.88
2023-02-08T23:25:55.424Z,101538.50
2023-02-08T23:28:23.867Z,101533.00
2023-02-08T23:30:52.220Z,101535.84
2023-02-08T23:33:20.501Z,101519.78
2023-02-08T23:35:48.720Z,101517.88
2023-02-08T23:38:17.122Z,101507.34
2023-02-08T23:40:45.665Z,101491.63
2023-02-08T23:43:15.518Z,101482.03
2023-02-08T23:45:43.840Z,101481.06
2023-02-08T23:48:14.665Z,101462.81
2023-02-08T23:50:43.117Z,101456.72
2023-02-08T23:53:11.692Z,101461.75
2023-02-08T23:55:39.907Z,101457.53
2023-02-08T23:58:08.166Z,101459.13
